DTW weather

Detroit Metropolitan Wayne County Airport
Detroit, Michigan, United States

Public forecast

Using degrees Fahrenheit for public forecast. Weather courtesy of forecast.io.

METAR (pilot weather report)

Retrieved 2017/05/24 23:55 UTC (1 hour ago):

KDTW 242355Z 08010KT 5SM -RA BR BKN010 OVC014 15/14 A2953 RMK AO2 P0000 T01500144

TAF (pilot weather forecast)

Forecast is more than 12 hours old.

Retrieved 2017/05/24 00:22 UTC (1 day ago):

TAF KDTW 242320Z 2500/2606 08010KT 5SM -SHRA BR BKN015 OVC030 FM250300 06009KT 4SM -SHRA BR BKN008 OVC012 FM251000 02007KT 4SM -SHRA BR OVC007